sensor_id;sensor_type;location;lat;lon;timestamp;pressure;altitude;pressure_sealevel;temperature;humidity
23643;BME280;11998;55.788;37.572;2023-06-22T00:00:44;98789.34;;;97.43;8.93
23643;BME280;11998;55.788;37.572;2023-06-22T00:01:44;98798.03;;;97.25;8.94
23643;BME280;11998;55.788;37.572;2023-06-22T00:02:45;98796.41;;;97.36;9.37
23643;BME280;11998;55.788;37.572;2023-06-22T00:03:45;98804.81;;;97.61;8.96
23643;BME280;11998;55.788;37.572;2023-06-22T00:04:46;98803.75;;;97.56;8.98
23643;BME280;11998;55.788;37.572;2023-06-22T00:05:48;98796.53;;;97.38;9.13
23643;BME280;11998;55.788;37.572;2023-06-22T00:06:48;98802.59;;;97.38;9.04
23643;BME280;11998;55.788;37.572;2023-06-22T00:07:49;98805.59;;;97.62;9.14
23643;BME280;11998;55.788;37.572;2023-06-22T00:08:49;98803.19;;;97.72;9.25
23643;BME280;11998;55.788;37.572;2023-06-22T00:09:50;98803.63;;;97.54;9.18
23643;BME280;11998;55.788;37.572;2023-06-22T00:10:51;98799.03;;;96.83;9.11
23643;BME280;11998;55.788;37.572;2023-06-22T00:11:51;98790.53;;;96.91;9.21
23643;BME280;11998;55.788;37.572;2023-06-22T00:12:52;98796.72;;;96.49;9.10
23643;BME280;11998;55.788;37.572;2023-06-22T00:13:52;98787.94;;;96.53;9.30
23643;BME280;11998;55.788;37.572;2023-06-22T00:14:53;98786.66;;;96.56;9.21
23643;BME280;11998;55.788;37.572;2023-06-22T00:15:53;98790.81;;;96.06;9.36
23643;BME280;11998;55.788;37.572;2023-06-22T00:16:54;98789.75;;;96.34;9.42
23643;BME280;11998;55.788;37.572;2023-06-22T00:17:57;98799.59;;;96.46;9.01
23643;BME280;11998;55.788;37.572;2023-06-22T00:18:59;98801.44;;;96.96;8.94
23643;BME280;11998;55.788;37.572;2023-06-22T00:20:00;98797.38;;;96.47;9.19
23643;BME280;11998;55.788;37.572;2023-06-22T00:21:01;98799.53;;;96.56;8.98
23643;BME280;11998;55.788;37.572;2023-06-22T00:22:02;98796.22;;;96.64;9.18
23643;BME280;11998;55.788;37.572;2023-06-22T00:23:06;98802.97;;;96.74;9.36
23643;BME280;11998;55.788;37.572;2023-06-22T00:24:08;98799.44;;;97.01;9.33
23643;BME280;11998;55.788;37.572;2023-06-22T00:25:09;98798.28;;;97.41;9.15
23643;BME280;11998;55.788;37.572;2023-06-22T00:26:10;98808.78;;;97.40;9.19
23643;BME280;11998;55.788;37.572;2023-06-22T00:27:11;98796.97;;;97.33;9.05
23643;BME280;11998;55.788;37.572;2023-06-22T00:28:12;98797.22;;;97.01;8.92
23643;BME280;11998;55.788;37.572;2023-06-22T00:29:13;98787.59;;;96.25;9.12
23643;BME280;11998;55.788;37.572;2023-06-22T00:30:15;98788.94;;;96.34;9.08
23643;BME280;11998;55.788;37.572;2023-06-22T00:31:16;98785.00;;;96.31;9.10
23643;BME280;11998;55.788;37.572;2023-06-22T00:32:16;98782.91;;;96.34;9.39
23643;BME280;11998;55.788;37.572;2023-06-22T00:33:17;98781.69;;;96.72;9.47
23643;BME280;11998;55.788;37.572;2023-06-22T00:34:18;98783.00;;;96.69;9.30
23643;BME280;11998;55.788;37.572;2023-06-22T00:35:18;98787.22;;;96.87;9.21
23643;BME280;11998;55.788;37.572;2023-06-22T00:36:19;98790.97;;;96.53;9.09
23643;BME280;11998;55.788;37.572;2023-06-22T00:37:20;98780.25;;;96.73;9.38
23643;BME280;11998;55.788;37.572;2023-06-22T00:38:25;98789.84;;;96.81;9.39
23643;BME280;11998;55.788;37.572;2023-06-22T00:39:26;98787.41;;;96.44;8.98
23643;BME280;11998;55.788;37.572;2023-06-22T00:40:30;98790.28;;;96.42;8.94
23643;BME280;11998;55.788;37.572;2023-06-22T00:41:31;98782.47;;;95.95;9.15
23643;BME280;11998;55.788;37.572;2023-06-22T00:42:32;98781.53;;;95.49;9.27
23643;BME280;11998;55.788;37.572;2023-06-22T00:43:32;98777.59;;;95.68;8.93
23643;BME280;11998;55.788;37.572;2023-06-22T00:44:32;98774.16;;;95.62;8.90
23643;BME280;11998;55.788;37.572;2023-06-22T00:45:33;98785.00;;;96.31;9.39
23643;BME280;11998;55.788;37.572;2023-06-22T00:46:34;98777.75;;;95.70;9.39
23643;BME280;11998;55.788;37.572;2023-06-22T00:47:35;98787.16;;;95.86;9.20
23643;BME280;11998;55.788;37.572;2023-06-22T00:48:36;98782.84;;;96.22;9.25
23643;BME280;11998;55.788;37.572;2023-06-22T00:49:37;98775.25;;;96.21;9.40
23643;BME280;11998;55.788;37.572;2023-06-22T00:50:39;98785.47;;;96.61;9.35
23643;BME280;11998;55.788;37.572;2023-06-22T00:51:40;98786.97;;;96.83;8.95
23643;BME280;11998;55.788;37.572;2023-06-22T00:52:51;98784.06;;;96.85;9.19
23643;BME280;11998;55.788;37.572;2023-06-22T00:53:51;98786.34;;;97.08;9.12
23643;BME280;11998;55.788;37.572;2023-06-22T00:54:53;98796.44;;;97.24;9.36
23643;BME280;11998;55.788;37.572;2023-06-22T00:55:55;98793.03;;;97.07;8.96
23643;BME280;11998;55.788;37.572;2023-06-22T00:56:56;98791.63;;;96.63;9.13
23643;BME280;11998;55.788;37.572;2023-06-22T00:57:58;98790.75;;;96.84;9.27
23643;BME280;11998;55.788;37.572;2023-06-22T00:58:59;98787.34;;;95.78;9.32
23643;BME280;11998;55.788;37.572;2023-06-22T01:00:00;98785.41;;;96.37;9.02
23643;BME280;11998;55.788;37.572;2023-06-22T01:01:01;98788.97;;;96.45;9.39
23643;BME280;11998;55.788;37.572;2023-06-22T01:02:02;98787.94;;;96.53;9.21
23643;BME280;11998;55.788;37.572;2023-06-22T01:03:04;98773.06;;;95.57;9.21
23643;BME280;11998;55.788;37.572;2023-06-22T01:04:07;98778.94;;;96.31;9.23
23643;BME280;11998;55.788;37.572;2023-06-22T01:05:07;98780.88;;;96.60;9.45
23643;BME280;11998;55.788;37.572;2023-06-22T01:06:20;98779.97;;;96.24;8.94
23643;BME280;11998;55.788;37.572;2023-06-22T01:07:35;98793.03;;;95.84;9.29
23643;BME280;11998;55.788;37.572;2023-06-22T01:09:57;98785.34;;;96.26;9.44
23643;BME280;11998;55.788;37.572;2023-06-22T01:11:10;98786.22;;;95.62;8.96
23643;BME280;11998;55.788;37.572;2023-06-22T01:12:13;98792.81;;;95.92;9.32
23643;BME280;11998;55.788;37.572;2023-06-22T01:13:32;98803.41;;;96.47;9.00
23643;BME280;11998;55.788;37.572;2023-06-22T01:14:43;98810.03;;;96.67;9.07
23643;BME280;11998;55.788;37.572;2023-06-22T01:15:51;98804.97;;;96.15;8.91
23643;BME280;11998;55.788;37.572;2023-06-22T01:16:54;98801.03;;;96.34;9.28
23643;BME280;11998;55.788;37.572;2023-06-22T01:17:57;98788.50;;;95.73;9.52
23643;BME280;11998;55.788;37.572;2023-06-22T01:19:02;98786.50;;;95.66;9.49
23643;BME280;11998;55.788;37.572;2023-06-22T01:20:08;98776.88;;;94.26;9.49
23643;BME280;11998;55.788;37.572;2023-06-22T01:21:12;98765.34;;;93.28;9.40
23643;BME280;11998;55.788;37.572;2023-06-22T01:22:17;98758.84;;;92.85;9.59
23643;BME280;11998;55.788;37.572;2023-06-22T01:23:33;98758.72;;;92.21;9.51
23643;BME280;11998;55.788;37.572;2023-06-22T01:25:00;98770.22;;;94.08;9.21
23643;BME280;11998;55.788;37.572;2023-06-22T01:26:20;98769.59;;;92.88;9.46
23643;BME280;11998;55.788;37.572;2023-06-22T01:27:32;98780.19;;;94.11;9.49
23643;BME280;11998;55.788;37.572;2023-06-22T01:28:43;98796.03;;;95.10;9.42
23643;BME280;11998;55.788;37.572;2023-06-22T01:29:45;98797.31;;;95.07;9.52
23643;BME280;11998;55.788;37.572;2023-06-22T01:30:47;98801.56;;;95.45;9.36
23643;BME280;11998;55.788;37.572;2023-06-22T01:31:50;98804.72;;;95.47;9.39
23643;BME280;11998;55.788;37.572;2023-06-22T01:32:53;98809.56;;;96.04;9.39
23643;BME280;11998;55.788;37.572;2023-06-22T01:33:58;98801.63;;;95.56;9.32
23643;BME280;11998;55.788;37.572;2023-06-22T01:35:01;98807.25;;;95.72;9.20
23643;BME280;11998;55.788;37.572;2023-06-22T01:36:04;98808.00;;;95.29;9.40
23643;BME280;11998;55.788;37.572;2023-06-22T01:37:06;98788.63;;;93.37;9.30
23643;BME280;11998;55.788;37.572;2023-06-22T01:38:08;98793.81;;;93.27;9.39
23643;BME280;11998;55.788;37.572;2023-06-22T01:39:11;98776.16;;;93.50;9.51
23643;BME280;11998;55.788;37.572;2023-06-22T01:40:13;98781.34;;;94.06;9.39
23643;BME280;11998;55.788;37.572;2023-06-22T01:41:16;98773.44;;;92.98;9.39
23643;BME280;11998;55.788;37.572;2023-06-22T01:42:18;98778.31;;;93.86;9.05
23643;BME280;11998;55.788;37.572;2023-06-22T01:43:20;98796.19;;;94.52;9.05
23643;BME280;11998;55.788;37.572;2023-06-22T01:44:24;98794.94;;;94.36;9.48
23643;BME280;11998;55.788;37.572;2023-06-22T01:45:27;98794.28;;;94.47;9.26
23643;BME280;11998;55.788;37.572;2023-06-22T01:46:28;98803.50;;;94.99;9.22
23643;BME280;11998;55.788;37.572;2023-06-22T01:47:29;98801.81;;;95.27;8.97
23643;BME280;11998;55.788;37.572;2023-06-22T01:48:31;98814.81;;;96.04;8.93
23643;BME280;11998;55.788;37.572;2023-06-22T01:49:31;98810.63;;;95.45;9.33
23643;BME280;11998;55.788;37.572;2023-06-22T01:50:32;98796.69;;;94.10;9.25
23643;BME280;11998;55.788;37.572;2023-06-22T01:51:33;98786.38;;;94.03;9.61
23643;BME280;11998;55.788;37.572;2023-06-22T01:52:33;98786.66;;;93.68;9.44
23643;BME280;11998;55.788;37.572;2023-06-22T01:53:34;98796.19;;;94.33;9.20
23643;BME280;11998;55.788;37.572;2023-06-22T01:54:34;98790.41;;;94.75;9.00
23643;BME280;11998;55.788;37.572;2023-06-22T01:55:35;98783.56;;;94.05;9.33
23643;BME280;11998;55.788;37.572;2023-06-22T01:56:36;98792.53;;;94.54;9.23
23643;BME280;11998;55.788;37.572;2023-06-22T01:57:36;98790.19;;;94.33;9.17
23643;BME280;11998;55.788;37.572;2023-06-22T01:58:47;98787.94;;;93.75;9.26
23643;BME280;11998;55.788;37.572;2023-06-22T02:01:05;98763.75;;;91.84;9.34
23643;BME280;11998;55.788;37.572;2023-06-22T02:02:11;98772.56;;;93.05;9.53
23643;BME280;11998;55.788;37.572;2023-06-22T02:03:19;98772.63;;;93.25;9.45
23643;BME280;11998;55.788;37.572;2023-06-22T02:04:24;98786.53;;;94.44;9.27
23643;BME280;11998;55.788;37.572;2023-06-22T02:05:33;98793.03;;;95.00;9.25
23643;BME280;11998;55.788;37.572;2023-06-22T02:06:37;98788.13;;;94.16;9.44
23643;BME280;11998;55.788;37.572;2023-06-22T02:07:44;98798.78;;;95.27;9.21
23643;BME280;11998;55.788;37.572;2023-06-22T02:08:49;98795.63;;;95.25;8.83
23643;BME280;11998;55.788;37.572;2023-06-22T02:09:52;98802.88;;;96.06;9.42
23643;BME280;11998;55.788;37.572;2023-06-22T02:10:55;98803.31;;;95.69;9.02
23643;BME280;11998;55.788;37.572;2023-06-22T02:11:58;98790.91;;;94.72;9.17
23643;BME280;11998;55.788;37.572;2023-06-22T02:13:01;98798.41;;;95.02;9.18
23643;BME280;11998;55.788;37.572;2023-06-22T02:14:04;98789.28;;;95.21;9.42
23643;BME280;11998;55.788;37.572;2023-06-22T02:15:06;98790.47;;;95.38;9.51
23643;BME280;11998;55.788;37.572;2023-06-22T02:16:07;98783.63;;;94.65;9.38
23643;BME280;11998;55.788;37.572;2023-06-22T02:17:08;98772.44;;;94.37;9.49
23643;BME280;11998;55.788;37.572;2023-06-22T02:18:09;98773.31;;;94.68;9.51
23643;BME280;11998;55.788;37.572;2023-06-22T02:19:10;98763.44;;;94.17;9.45
23643;BME280;11998;55.788;37.572;2023-06-22T02:20:14;98768.19;;;93.82;9.20
23643;BME280;11998;55.788;37.572;2023-06-22T02:21:15;98761.53;;;93.93;9.20
23643;BME280;11998;55.788;37.572;2023-06-22T02:22:15;98766.25;;;94.95;9.27
23643;BME280;11998;55.788;37.572;2023-06-22T02:23:16;98764.50;;;94.12;9.38
23643;BME280;11998;55.788;37.572;2023-06-22T02:24:17;98758.63;;;94.53;9.18
23643;BME280;11998;55.788;37.572;2023-06-22T02:25:17;98762.94;;;94.31;9.45
23643;BME280;11998;55.788;37.572;2023-06-22T02:26:19;98763.41;;;94.37;9.32
23643;BME280;11998;55.788;37.572;2023-06-22T02:27:20;98740.34;;;91.23;9.65
23643;BME280;11998;55.788;37.572;2023-06-22T02:28:22;98744.50;;;92.22;9.32
23643;BME280;11998;55.788;37.572;2023-06-22T02:29:22;98733.69;;;91.67;9.44
23643;BME280;11998;55.788;37.572;2023-06-22T02:30:23;98738.38;;;91.18;9.52
23643;BME280;11998;55.788;37.572;2023-06-22T02:31:23;98728.09;;;90.39;9.54
23643;BME280;11998;55.788;37.572;2023-06-22T02:32:30;98725.25;;;89.93;9.65
23643;BME280;11998;55.788;37.572;2023-06-22T02:33:31;98724.13;;;90.28;9.50
23643;BME280;11998;55.788;37.572;2023-06-22T02:34:32;98722.56;;;90.27;9.34
23643;BME280;11998;55.788;37.572;2023-06-22T02:35:34;98722.72;;;89.66;9.33
23643;BME280;11998;55.788;37.572;2023-06-22T02:36:35;98723.34;;;89.65;9.54
23643;BME280;11998;55.788;37.572;2023-06-22T02:37:37;98725.72;;;89.66;9.72
23643;BME280;11998;55.788;37.572;2023-06-22T02:38:42;98727.84;;;90.84;9.22
23643;BME280;11998;55.788;37.572;2023-06-22T02:39:48;98722.56;;;89.34;9.39
23643;BME280;11998;55.788;37.572;2023-06-22T02:40:48;98732.09;;;90.33;9.44
23643;BME280;11998;55.788;37.572;2023-06-22T02:41:53;98734.41;;;90.58;9.67
23643;BME280;11998;55.788;37.572;2023-06-22T02:42:54;98739.69;;;91.50;9.46
23643;BME280;11998;55.788;37.572;2023-06-22T02:43:55;98742.97;;;91.44;9.55
23643;BME280;11998;55.788;37.572;2023-06-22T02:44:55;98740.88;;;91.04;9.57
23643;BME280;11998;55.788;37.572;2023-06-22T02:45:56;98742.75;;;92.19;9.42
23643;BME280;11998;55.788;37.572;2023-06-22T02:46:58;98739.47;;;89.69;9.38
23643;BME280;11998;55.788;37.572;2023-06-22T02:47:59;98738.25;;;90.83;9.29
23643;BME280;11998;55.788;37.572;2023-06-22T02:48:59;98738.66;;;90.80;9.46
23643;BME280;11998;55.788;37.572;2023-06-22T02:50:00;98753.81;;;92.43;9.40
23643;BME280;11998;55.788;37.572;2023-06-22T02:51:01;98745.09;;;91.26;9.52
23643;BME280;11998;55.788;37.572;2023-06-22T02:52:02;98745.66;;;91.32;9.47
23643;BME280;11998;55.788;37.572;2023-06-22T02:53:02;98742.72;;;91.25;9.62
23643;BME280;11998;55.788;37.572;2023-06-22T02:54:03;98739.84;;;91.34;9.46
23643;BME280;11998;55.788;37.572;2023-06-22T02:55:04;98740.31;;;91.48;9.40
23643;BME280;11998;55.788;37.572;2023-06-22T02:56:04;98744.66;;;91.30;9.51
23643;BME280;11998;55.788;37.572;2023-06-22T02:57:05;98754.72;;;92.36;9.42
23643;BME280;11998;55.788;37.572;2023-06-22T02:58:06;98758.22;;;93.23;9.42
23643;BME280;11998;55.788;37.572;2023-06-22T02:59:06;98755.19;;;92.33;9.32
23643;BME280;11998;55.788;37.572;2023-06-22T03:00:07;98752.06;;;92.06;9.61
23643;BME280;11998;55.788;37.572;2023-06-22T03:01:17;98743.50;;;91.67;9.59
23643;BME280;11998;55.788;37.572;2023-06-22T03:02:26;98752.69;;;92.93;9.21
23643;BME280;11998;55.788;37.572;2023-06-22T03:03:28;98765.28;;;93.08;9.35
23643;BME280;11998;55.788;37.572;2023-06-22T03:04:28;98753.94;;;92.36;9.48
23643;BME280;11998;55.788;37.572;2023-06-22T03:05:29;98744.75;;;91.22;9.47
23643;BME280;11998;55.788;37.572;2023-06-22T03:06:30;98739.78;;;90.52;9.59
23643;BME280;11998;55.788;37.572;2023-06-22T03:07:30;98736.34;;;91.63;9.49
23643;BME280;11998;55.788;37.572;2023-06-22T03:08:31;98745.28;;;92.22;9.23
23643;BME280;11998;55.788;37.572;2023-06-22T03:09:31;98740.97;;;91.81;9.58
23643;BME280;11998;55.788;37.572;2023-06-22T03:10:32;98733.47;;;90.40;9.60
23643;BME280;11998;55.788;37.572;2023-06-22T03:11:33;98735.75;;;92.16;9.54
23643;BME280;11998;55.788;37.572;2023-06-22T03:12:34;98730.66;;;91.75;9.49
23643;BME280;11998;55.788;37.572;2023-06-22T03:13:35;98728.44;;;91.58;9.53
23643;BME280;11998;55.788;37.572;2023-06-22T03:14:36;98742.50;;;92.51;9.23
23643;BME280;11998;55.788;37.572;2023-06-22T03:15:36;98728.53;;;90.27;9.65
23643;BME280;11998;55.788;37.572;2023-06-22T03:16:37;98715.47;;;89.92;9.62
23643;BME280;11998;55.788;37.572;2023-06-22T03:17:38;98728.81;;;91.96;9.24
23643;BME280;11998;55.788;37.572;2023-06-22T03:18:39;98727.56;;;91.23;9.59
23643;BME280;11998;55.788;37.572;2023-06-22T03:19:40;98716.84;;;89.99;9.62
23643;BME280;11998;55.788;37.572;2023-06-22T03:20:41;98717.59;;;90.95;9.56
23643;BME280;11998;55.788;37.572;2023-06-22T03:21:41;98727.75;;;92.46;9.25
23643;BME280;11998;55.788;37.572;2023-06-22T03:22:42;98729.22;;;92.54;9.30
23643;BME280;11998;55.788;37.572;2023-06-22T03:23:43;98738.66;;;93.51;9.08
23643;BME280;11998;55.788;37.572;2023-06-22T03:24:47;98729.84;;;92.80;9.28
23643;BME280;11998;55.788;37.572;2023-06-22T03:25:48;98732.69;;;93.15;9.25
23643;BME280;11998;55.788;37.572;2023-06-22T03:26:48;98745.50;;;94.39;9.01
23643;BME280;11998;55.788;37.572;2023-06-22T03:27:49;98735.94;;;93.36;9.57
23643;BME280;11998;55.788;37.572;2023-06-22T03:28:49;98736.13;;;93.01;9.38
23643;BME280;11998;55.788;37.572;2023-06-22T03:29:50;98719.47;;;92.10;9.51
23643;BME280;11998;55.788;37.572;2023-06-22T03:30:51;98735.06;;;94.01;9.06
23643;BME280;11998;55.788;37.572;2023-06-22T03:31:51;98741.84;;;94.31;9.07
23643;BME280;11998;55.788;37.572;2023-06-22T03:32:52;98760.97;;;95.05;9.11
23643;BME280;11998;55.788;37.572;2023-06-22T03:33:52;98747.06;;;94.40;9.11
23643;BME280;11998;55.788;37.572;2023-06-22T03:34:53;98759.94;;;94.91;9.48
23643;BME280;11998;55.788;37.572;2023-06-22T03:35:54;98759.47;;;95.89;9.41
23643;BME280;11998;55.788;37.572;2023-06-22T03:36:54;98753.75;;;95.72;9.21
23643;BME280;11998;55.788;37.572;2023-06-22T03:37:55;98754.59;;;95.42;8.91
23643;BME280;11998;55.788;37.572;2023-06-22T03:38:56;98755.72;;;94.74;9.31
23643;BME280;11998;55.788;37.572;2023-06-22T03:39:56;98752.50;;;94.82;9.44
23643;BME280;11998;55.788;37.572;2023-06-22T03:40:57;98736.34;;;93.98;9.57
23643;BME280;11998;55.788;37.572;2023-06-22T03:41:59;98742.94;;;95.26;8.99
23643;BME280;11998;55.788;37.572;2023-06-22T03:43:00;98749.41;;;95.75;9.31
23643;BME280;11998;55.788;37.572;2023-06-22T03:44:00;98752.84;;;96.03;9.42
23643;BME280;11998;55.788;37.572;2023-06-22T03:45:02;98730.31;;;93.59;9.54
23643;BME280;11998;55.788;37.572;2023-06-22T03:46:03;98716.63;;;92.12;9.63
23643;BME280;11998;55.788;37.572;2023-06-22T03:47:04;98717.56;;;93.22;9.45
23643;BME280;11998;55.788;37.572;2023-06-22T03:48:04;98725.53;;;93.76;9.42
23643;BME280;11998;55.788;37.572;2023-06-22T03:49:05;98724.31;;;94.17;9.50
23643;BME280;11998;55.788;37.572;2023-06-22T03:50:06;98735.75;;;95.10;9.43
23643;BME280;11998;55.788;37.572;2023-06-22T03:51:07;98751.31;;;95.80;9.38
23643;BME280;11998;55.788;37.572;2023-06-22T03:52:07;98755.13;;;96.59;8.97
23643;BME280;11998;55.788;37.572;2023-06-22T03:53:08;98730.91;;;93.48;9.57
23643;BME280;11998;55.788;37.572;2023-06-22T03:54:08;98740.63;;;96.01;8.91
23643;BME280;11998;55.788;37.572;2023-06-22T03:55:09;98749.91;;;96.83;9.19
23643;BME280;11998;55.788;37.572;2023-06-22T03:56:10;98734.63;;;95.37;9.23
23643;BME280;11998;55.788;37.572;2023-06-22T03:57:10;98746.41;;;95.75;9.14
23643;BME280;11998;55.788;37.572;2023-06-22T03:58:11;98739.25;;;95.80;9.08
23643;BME280;11998;55.788;37.572;2023-06-22T03:59:12;98744.09;;;96.07;8.99
23643;BME280;11998;55.788;37.572;2023-06-22T04:00:13;98738.31;;;95.56;9.60
23643;BME280;11998;55.788;37.572;2023-06-22T04:01:16;98749.69;;;96.90;8.95
23643;BME280;11998;55.788;37.572;2023-06-22T04:02:17;98746.22;;;96.84;9.19
23643;BME280;11998;55.788;37.572;2023-06-22T04:03:19;98754.56;;;97.68;9.10
23643;BME280;11998;55.788;37.572;2023-06-22T04:04:23;98754.56;;;98.30;9.26
23643;BME280;11998;55.788;37.572;2023-06-22T04:05:23;98756.41;;;99.02;8.92
23643;BME280;11998;55.788;37.572;2023-06-22T04:06:26;98757.25;;;99.46;8.85
23643;BME280;11998;55.788;37.572;2023-06-22T04:07:27;98748.81;;;97.60;9.13
23643;BME280;11998;55.788;37.572;2023-06-22T04:08:27;98748.03;;;97.85;9.12
23643;BME280;11998;55.788;37.572;2023-06-22T04:09:28;98739.94;;;98.01;9.11
23643;BME280;11998;55.788;37.572;2023-06-22T04:10:28;98752.06;;;98.52;8.96
23643;BME280;11998;55.788;37.572;2023-06-22T04:11:29;98752.06;;;98.52;9.16
23643;BME280;11998;55.788;37.572;2023-06-22T04:12:29;98757.97;;;99.03;9.19
23643;BME280;11998;55.788;37.572;2023-06-22T04:13:30;98751.75;;;98.09;9.13
23643;BME280;11998;55.788;37.572;2023-06-22T04:14:33;98755.72;;;98.90;9.02
23643;BME280;11998;55.788;37.572;2023-06-22T04:15:34;98742.34;;;99.09;9.13
23643;BME280;11998;55.788;37.572;2023-06-22T04:16:35;98767.94;;;100.35;9.28
23643;BME280;11998;55.788;37.572;2023-06-22T04:17:35;98765.41;;;101.09;8.60
23643;BME280;11998;55.788;37.572;2023-06-22T04:18:36;98775.84;;;102.07;9.22
23643;BME280;11998;55.788;37.572;2023-06-22T04:19:36;98759.31;;;101.76;8.70
23643;BME280;11998;55.788;37.572;2023-06-22T04:20:37;98764.06;;;100.96;8.77
23643;BME280;11998;55.788;37.572;2023-06-22T04:21:37;98766.59;;;102.22;8.99
23643;BME280;11998;55.788;37.572;2023-06-22T04:22:38;98773.03;;;103.08;9.00
23643;BME280;11998;55.788;37.572;2023-06-22T04:23:38;98768.44;;;103.71;8.76
23643;BME280;11998;55.788;37.572;2023-06-22T04:24:39;98772.25;;;103.07;8.95
23643;BME280;11998;55.788;37.572;2023-06-22T04:25:39;98772.53;;;103.79;8.67
23643;BME280;11998;55.788;37.572;2023-06-22T04:26:40;98765.63;;;104.22;8.49
23643;BME280;11998;55.788;37.572;2023-06-22T04:27:42;98768.03;;;104.76;8.88
23643;BME280;11998;55.788;37.572;2023-06-22T04:28:42;98759.69;;;105.32;9.03
23643;BME280;11998;55.788;37.572;2023-06-22T04:29:43;98760.06;;;105.75;8.38
23643;BME280;11998;55.788;37.572;2023-06-22T04:30:49;98763.91;;;106.41;8.73
23643;BME280;11998;55.788;37.572;2023-06-22T04:31:51;98753.50;;;106.55;8.72
23643;BME280;11998;55.788;37.572;2023-06-22T04:32:51;98746.88;;;106.32;9.03
23643;BME280;11998;55.788;37.572;2023-06-22T04:34:00;98746.53;;;106.88;8.45
23643;BME280;11998;55.788;37.572;2023-06-22T04:35:06;98743.53;;;106.92;8.94
23643;BME280;11998;55.788;37.572;2023-06-22T04:36:07;98736.50;;;107.24;8.84
23643;BME280;11998;55.788;37.572;2023-06-22T04:37:07;98737.66;;;107.05;8.73
23643;BME280;11998;55.788;37.572;2023-06-22T04:38:08;98729.44;;;107.15;8.51
23643;BME280;11998;55.788;37.572;2023-06-22T04:39:10;98724.66;;;107.48;8.69
23643;BME280;11998;55.788;37.572;2023-06-22T04:40:11;98722.41;;;108.01;8.79
23643;BME280;11998;55.788;37.572;2023-06-22T04:41:15;98728.16;;;108.27;8.75
23643;BME280;11998;55.788;37.572;2023-06-22T04:42:26;98714.31;;;108.26;8.66
23643;BME280;11998;55.788;37.572;2023-06-22T04:43:27;98724.84;;;108.72;8.75
23643;BME280;11998;55.788;37.572;2023-06-22T04:44:30;98720.66;;;109.13;8.73
23643;BME280;11998;55.788;37.572;2023-06-22T04:45:31;98713.00;;;109.16;8.60
23643;BME280;11998;55.788;37.572;2023-06-22T04:46:32;98701.06;;;108.10;8.95
23643;BME280;11998;55.788;37.572;2023-06-22T04:47:34;98700.03;;;108.51;8.50
23643;BME280;11998;55.788;37.572;2023-06-22T04:48:34;98695.78;;;108.83;8.57
23643;BME280;11998;55.788;37.572;2023-06-22T04:49:36;98701.00;;;109.55;8.72
23643;BME280;11998;55.788;37.572;2023-06-22T04:50:40;98683.28;;;107.49;8.97
23643;BME280;11998;55.788;37.572;2023-06-22T04:51:42;98692.34;;;107.92;8.88
23643;BME280;11998;55.788;37.572;2023-06-22T04:52:43;98697.69;;;109.21;8.63
23643;BME280;11998;55.788;37.572;2023-06-22T04:53:43;98685.78;;;108.18;8.66
23643;BME280;11998;55.788;37.572;2023-06-22T04:54:44;98679.16;;;107.33;8.88
23643;BME280;11998;55.788;37.572;2023-06-22T04:55:48;98684.22;;;108.15;8.89
23643;BME280;11998;55.788;37.572;2023-06-22T04:56:49;98679.97;;;107.35;8.83
23643;BME280;11998;55.788;37.572;2023-06-22T04:57:57;98671.22;;;106.77;8.83
23643;BME280;11998;55.788;37.572;2023-06-22T04:59:04;98671.34;;;107.72;8.89
23643;BME280;11998;55.788;37.572;2023-06-22T05:00:05;98676.34;;;107.97;8.86
23643;BME280;11998;55.788;37.572;2023-06-22T05:01:12;98680.00;;;108.44;8.71
23643;BME280;11998;55.788;37.572;2023-06-22T05:02:13;98690.44;;;108.87;8.80
23643;BME280;11998;55.788;37.572;2023-06-22T05:03:14;98690.13;;;108.57;8.77
23643;BME280;11998;55.788;37.572;2023-06-22T05:04:18;98678.09;;;108.15;8.85
23643;BME280;11998;55.788;37.572;2023-06-22T05:05:19;98683.06;;;107.86;8.78
23643;BME280;11998;55.788;37.572;2023-06-22T05:06:20;98677.41;;;107.68;9.02
23643;BME280;11998;55.788;37.572;2023-06-22T05:07:20;98677.97;;;108.06;8.52
23643;BME280;11998;55.788;37.572;2023-06-22T05:08:21;98683.28;;;108.62;8.77
23643;BME280;11998;55.788;37.572;2023-06-22T05:09:21;98683.22;;;108.56;8.69
23643;BME280;11998;55.788;37.572;2023-06-22T05:10:22;98693.22;;;109.38;8.71
23643;BME280;11998;55.788;37.572;2023-06-22T05:11:26;98692.00;;;108.88;8.62
23643;BME280;11998;55.788;37.572;2023-06-22T05:12:28;98705.66;;;109.60;8.62
23643;BME280;11998;55.788;37.572;2023-06-22T05:13:29;98702.56;;;109.54;8.66
23643;BME280;11998;55.788;37.572;2023-06-22T05:14:29;98709.25;;;110.82;8.44
23643;BME280;11998;55.788;37.572;2023-06-22T05:15:30;98703.88;;;111.11;8.80
23643;BME280;11998;55.788;37.572;2023-06-22T05:16:37;98701.22;;;112.34;8.96
23643;BME280;11998;55.788;37.572;2023-06-22T05:17:38;98699.94;;;113.71;8.52
23643;BME280;11998;55.788;37.572;2023-06-22T05:18:58;98687.97;;;114.51;8.35
23643;BME280;11998;55.788;37.572;2023-06-22T05:19:59;98691.22;;;115.30;8.70
23643;BME280;11998;55.788;37.572;2023-06-22T05:21:00;98694.41;;;115.98;8.85
23643;BME280;11998;55.788;37.572;2023-06-22T05:22:00;98680.38;;;116.65;8.24
23643;BME280;11998;55.788;37.572;2023-06-22T05:23:01;98679.59;;;117.21;8.61
23643;BME280;11998;55.788;37.572;2023-06-22T05:24:02;98668.72;;;116.64;8.79
23643;BME280;11998;55.788;37.572;2023-06-22T05:25:04;98669.97;;;117.04;8.68
23643;BME280;11998;55.788;37.572;2023-06-22T05:26:06;98662.13;;;117.59;8.37
23643;BME280;11998;55.788;37.572;2023-06-22T05:27:10;98649.13;;;117.52;8.62
23643;BME280;11998;55.788;37.572;2023-06-22T05:28:10;98656.44;;;117.67;8.69
23643;BME280;11998;55.788;37.572;2023-06-22T05:29:12;98653.09;;;118.44;8.52
23643;BME280;11998;55.788;37.572;2023-06-22T05:30:13;98646.25;;;118.61;8.45
23643;BME280;11998;55.788;37.572;2023-06-22T05:31:15;98636.09;;;118.41;8.71